createdAt,value
2019-04-26T00:01:38.700Z,42.30
2019-04-26T00:04:07.743Z,42.50
2019-04-26T00:06:37.734Z,42.30
2019-04-26T00:09:13.964Z,42.60
2019-04-26T00:11:53.492Z,42.70
2019-04-26T00:14:29.632Z,42.40
2019-04-26T00:16:59.970Z,42.90
2019-04-26T00:19:29.019Z,43.00
2019-04-26T00:21:58.112Z,43.10
2019-04-26T00:24:28.492Z,43.10
2019-04-26T00:26:57.254Z,43.20
2019-04-26T00:29:25.572Z,43.40
2019-04-26T00:31:54.303Z,43.80
2019-04-26T00:34:22.645Z,43.50
2019-04-26T00:36:51.036Z,43.60
2019-04-26T00:39:20.332Z,43.70
2019-04-26T00:41:49.098Z,43.50
2019-04-26T00:44:18.606Z,43.70
2019-04-26T00:46:47.383Z,43.80
2019-04-26T00:49:17.031Z,43.60
2019-04-26T00:51:46.135Z,43.80
2019-04-26T00:54:15.497Z,43.80
2019-04-26T00:56:44.253Z,43.60
2019-04-26T00:59:14.913Z,43.40
2019-04-26T01:01:44.798Z,42.80
2019-04-26T01:04:14.550Z,42.40
2019-04-26T01:06:45.517Z,42.60
2019-04-26T01:09:15.887Z,42.50
2019-04-26T01:11:44.431Z,42.40
2019-04-26T01:14:13.035Z,42.30
2019-04-26T01:16:41.423Z,41.50
2019-04-26T01:19:10.187Z,41.80
2019-04-26T01:21:44.661Z,41.60
2019-04-26T01:24:13.277Z,42.80
2019-04-26T01:26:41.860Z,42.00
2019-04-26T01:29:13.966Z,43.00
2019-04-26T01:31:48.431Z,42.10
2019-04-26T01:34:17.742Z,42.50
2019-04-26T01:36:47.483Z,43.30
2019-04-26T01:39:19.670Z,43.40
2019-04-26T01:41:51.002Z,43.60
2019-04-26T01:44:40.619Z,44.00
2019-04-26T01:47:09.223Z,44.30
2019-04-26T01:49:37.833Z,45.00
2019-04-26T01:52:10.347Z,45.10
2019-04-26T01:54:41.616Z,44.70
2019-04-26T01:57:10.379Z,44.60
2019-04-26T01:59:39.662Z,44.90
2019-04-26T02:02:25.643Z,45.10
2019-04-26T02:04:58.814Z,45.20
2019-04-26T02:07:29.125Z,45.80
2019-04-26T02:09:57.723Z,45.00
2019-04-26T02:12:26.733Z,45.70
2019-04-26T02:14:55.418Z,45.50
2019-04-26T02:17:24.502Z,45.70
2019-04-26T02:19:53.985Z,46.00
2019-04-26T02:22:40.765Z,45.90
2019-04-26T02:25:09.367Z,46.30
2019-04-26T02:27:37.942Z,46.00
2019-04-26T02:30:08.119Z,45.90
2019-04-26T02:32:37.224Z,46.20
2019-04-26T02:35:06.586Z,46.60
2019-04-26T02:37:36.741Z,47.70
2019-04-26T02:40:08.979Z,47.20
2019-04-26T02:42:39.653Z,46.80
2019-04-26T02:45:34.767Z,47.30
2019-04-26T02:48:16.771Z,47.10
2019-04-26T02:50:53.017Z,48.90
2019-04-26T02:53:38.714Z,47.60
2019-04-26T02:56:10.921Z,47.40
2019-04-26T02:58:58.026Z,47.60
2019-04-26T03:01:29.330Z,47.50
2019-04-26T03:03:57.534Z,47.90
2019-04-26T03:06:26.216Z,47.80
2019-04-26T03:08:55.672Z,48.70
2019-04-26T03:11:27.071Z,48.20
2019-04-26T03:13:57.654Z,48.50
2019-04-26T03:16:33.364Z,48.40
2019-04-26T03:19:10.758Z,49.30
2019-04-26T03:22:06.962Z,48.80
2019-04-26T03:24:40.480Z,48.60
2019-04-26T03:27:35.886Z,48.60
2019-04-26T03:30:21.649Z,49.00
2019-04-26T03:32:54.018Z,48.90
2019-04-26T03:35:29.511Z,49.30
2019-04-26T03:38:21.003Z,49.90
2019-04-26T03:41:03.108Z,49.20
2019-04-26T03:43:51.762Z,48.80
2019-04-26T03:46:35.530Z,48.40
2019-04-26T03:49:24.715Z,48.80
2019-04-26T03:52:06.415Z,48.80
2019-04-26T03:54:36.912Z,48.60
2019-04-26T03:57:38.779Z,49.20
2019-04-26T04:00:23.269Z,49.20
2019-04-26T04:03:28.958Z,49.10
2019-04-26T04:05:59.101Z,48.30
2019-04-26T04:08:30.989Z,48.60
2019-04-26T04:11:06.040Z,48.70
2019-04-26T04:13:54.891Z,48.80
2019-04-26T04:16:30.592Z,49.00
2019-04-26T04:19:02.479Z,49.00
2019-04-26T04:21:40.693Z,49.30
2019-04-26T04:24:14.493Z,49.20
2019-04-26T04:26:55.706Z,49.60
2019-04-26T04:29:42.941Z,50.20
2019-04-26T04:32:32.995Z,50.20
2019-04-26T04:35:10.821Z,51.20
2019-04-26T04:38:08.613Z,50.80
2019-04-26T04:40:58.790Z,51.40
2019-04-26T04:43:37.982Z,51.60
2019-04-26T04:46:17.674Z,52.00
2019-04-26T04:49:11.812Z,52.30
2019-04-26T04:51:49.891Z,52.30
2019-04-26T04:54:20.975Z,52.30
2019-04-26T04:57:10.622Z,52.30
2019-04-26T04:59:50.850Z,52.50
2019-04-26T05:02:26.946Z,52.60
2019-04-26T05:05:06.320Z,52.90
2019-04-26T05:08:06.752Z,53.50
2019-04-26T05:10:39.976Z,53.60
2019-04-26T05:13:11.958Z,53.90
2019-04-26T05:16:20.256Z,53.90
2019-04-26T05:19:13.242Z,54.30
2019-04-26T05:22:07.969Z,53.90
2019-04-26T05:24:56.370Z,53.90
2019-04-26T05:27:48.241Z,54.00
2019-04-26T05:30:39.484Z,53.90
2019-04-26T05:33:11.535Z,55.10
2019-04-26T05:36:07.259Z,55.70
2019-04-26T05:38:58.427Z,57.20
2019-04-26T05:41:53.535Z,57.50
2019-04-26T05:45:06.328Z,56.30
2019-04-26T05:47:38.844Z,56.50
2019-04-26T05:50:33.770Z,57.20
2019-04-26T05:53:31.269Z,57.30
2019-04-26T05:56:11.021Z,56.40
2019-04-26T05:59:10.005Z,56.90
2019-04-26T06:02:21.056Z,56.70
2019-04-26T06:05:14.959Z,57.10
2019-04-26T06:08:03.079Z,57.00
2019-04-26T06:10:45.641Z,56.10
2019-04-26T06:13:30.936Z,55.50
2019-04-26T06:16:26.967Z,54.70
2019-04-26T06:19:18.425Z,54.30
2019-04-26T06:22:10.815Z,54.00
2019-04-26T06:24:45.170Z,54.40
2019-04-26T06:27:38.573Z,55.70
2019-04-26T06:30:17.178Z,56.50
2019-04-26T06:33:00.952Z,56.90
2019-04-26T06:35:25.372Z,57.40
2019-04-26T06:38:23.665Z,57.40
2019-04-26T06:41:04.915Z,57.10
2019-04-26T06:43:42.729Z,57.70
2019-04-26T06:46:33.999Z,56.90
2019-04-26T06:49:25.192Z,56.80
2019-04-26T06:51:57.512Z,56.70
2019-04-26T06:54:33.351Z,56.10
2019-04-26T06:57:38.248Z,56.60
2019-04-26T07:00:13.660Z,56.10
2019-04-26T07:03:05.679Z,54.90
2019-04-26T07:05:36.252Z,54.80
2019-04-26T07:08:17.126Z,55.10
2019-04-26T07:11:01.238Z,54.10
2019-04-26T07:13:59.331Z,54.40
2019-04-26T07:16:41.136Z,54.30
2019-04-26T07:19:49.539Z,54.00
2019-04-26T07:22:35.652Z,54.10
2019-04-26T07:25:36.192Z,55.20
2019-04-26T07:28:24.693Z,55.40
2019-04-26T07:31:18.137Z,55.90
2019-04-26T07:34:22.142Z,55.80
2019-04-26T07:37:11.405Z,56.90
2019-04-26T07:40:11.610Z,57.40
2019-04-26T07:43:06.424Z,58.30
2019-04-26T07:45:52.071Z,59.20
2019-04-26T07:48:23.118Z,59.70
2019-04-26T07:51:11.636Z,60.10
2019-04-26T07:53:43.327Z,60.50
2019-04-26T07:56:34.621Z,60.60
2019-04-26T07:59:38.528Z,59.30
2019-04-26T08:02:29.354Z,58.90
2019-04-26T08:05:19.341Z,58.80
2019-04-26T08:07:54.005Z,58.70
2019-04-26T08:10:22.683Z,58.80
2019-04-26T08:12:54.561Z,58.60
2019-04-26T08:15:40.148Z,58.30
2019-04-26T08:18:13.502Z,57.80
2019-04-26T08:20:52.715Z,58.10
2019-04-26T08:23:39.218Z,58.60
2019-04-26T08:25:56.430Z,58.90
2019-04-26T08:28:25.113Z,59.50
2019-04-26T08:30:55.195Z,59.40
2019-04-26T08:33:27.519Z,59.40
2019-04-26T08:35:56.187Z,58.40
2019-04-26T08:38:25.066Z,58.10
2019-04-26T08:40:53.717Z,57.40
2019-04-26T08:43:35.971Z,56.50
2019-04-26T08:46:12.573Z,56.00
2019-04-26T08:48:41.177Z,56.10
2019-04-26T08:51:21.847Z,56.20
2019-04-26T08:53:50.876Z,55.80
2019-04-26T08:56:28.400Z,56.00
2019-04-26T08:59:00.279Z,56.30
2019-04-26T09:01:30.535Z,57.10
2019-04-26T09:04:00.864Z,54.80
2019-04-26T09:06:39.967Z,55.80
2019-04-26T09:09:14.402Z,55.60
2019-04-26T09:11:41.665Z,55.90
2019-04-26T09:14:10.554Z,56.50
2019-04-26T09:16:49.858Z,56.20
2019-04-26T09:19:09.554Z,55.80
2019-04-26T09:21:38.904Z,56.50
2019-04-26T09:24:27.424Z,56.60
2019-04-26T09:27:06.644Z,56.60
2019-04-26T09:29:36.996Z,56.60
2019-04-26T09:32:10.037Z,57.20
2019-04-26T09:34:41.540Z,58.30
2019-04-26T09:37:10.976Z,59.20
2019-04-26T09:39:41.570Z,59.00
2019-04-26T09:42:26.658Z,58.60
2019-04-26T09:45:11.991Z,59.30
2019-04-26T09:47:48.068Z,59.00
2019-04-26T09:50:24.143Z,58.60
2019-04-26T09:52:54.302Z,57.90
2019-04-26T09:55:34.540Z,57.60
2019-04-26T09:57:53.484Z,56.60
2019-04-26T10:00:30.609Z,56.60
2019-04-26T10:02:59.378Z,57.10
2019-04-26T10:05:27.696Z,57.00
2019-04-26T10:07:56.317Z,57.00
2019-04-26T10:10:26.354Z,56.20
2019-04-26T10:12:56.607Z,55.50
2019-04-26T10:15:29.800Z,56.10
2019-04-26T10:17:59.170Z,55.80
2019-04-26T10:20:27.827Z,55.30
2019-04-26T10:22:56.356Z,53.90
2019-04-26T10:25:24.682Z,53.70
2019-04-26T10:27:53.371Z,54.40
2019-04-26T10:30:21.697Z,53.90
2019-04-26T10:32:50.097Z,54.00
2019-04-26T10:35:21.737Z,54.10
2019-04-26T10:37:49.287Z,52.90
2019-04-26T10:40:18.397Z,52.20
2019-04-26T10:42:46.116Z,53.10
2019-04-26T10:45:16.326Z,53.40
2019-04-26T10:47:45.131Z,53.00
2019-04-26T10:50:13.825Z,52.40
2019-04-26T10:52:45.694Z,52.50
2019-04-26T10:55:21.114Z,53.50
2019-04-26T10:57:55.852Z,53.50
2019-04-26T11:00:38.137Z,54.00
2019-04-26T11:03:06.823Z,54.00
2019-04-26T11:05:35.204Z,53.90
2019-04-26T11:08:03.774Z,53.80
2019-04-26T11:10:31.407Z,53.70
2019-04-26T11:13:00.028Z,53.70
2019-04-26T11:15:29.115Z,54.00
2019-04-26T11:17:57.683Z,54.80
2019-04-26T11:20:26.302Z,53.90
2019-04-26T11:22:54.003Z,54.00
2019-04-26T11:25:24.705Z,54.10
2019-04-26T11:27:53.073Z,53.40
2019-04-26T11:30:21.362Z,52.20
2019-04-26T11:32:49.234Z,52.20
2019-04-26T11:35:17.831Z,51.00
2019-04-26T11:37:46.451Z,52.60
2019-04-26T11:40:15.875Z,52.40
2019-04-26T11:42:45.762Z,52.70
2019-04-26T11:45:16.101Z,52.30
2019-04-26T11:47:55.477Z,52.60
2019-04-26T11:50:16.057Z,52.00
2019-04-26T11:52:45.274Z,51.10
2019-04-26T11:55:14.897Z,50.60
2019-04-26T11:57:43.664Z,50.80
2019-04-26T12:00:15.100Z,50.30
2019-04-26T12:02:46.323Z,49.80
2019-04-26T12:05:31.341Z,49.70
2019-04-26T12:08:07.451Z,50.60
2019-04-26T12:10:36.127Z,51.70
2019-04-26T12:13:05.961Z,53.10
2019-04-26T12:15:34.968Z,51.80
2019-04-26T12:18:05.606Z,49.70
2019-04-26T12:20:33.917Z,48.60
2019-04-26T12:23:02.568Z,49.40
2019-04-26T12:25:31.175Z,49.10
2019-04-26T12:28:02.053Z,48.70
2019-04-26T12:30:30.003Z,48.80
2019-04-26T12:32:57.752Z,47.70
2019-04-26T12:35:26.438Z,44.90
2019-04-26T12:37:55.819Z,45.00
2019-04-26T12:40:24.543Z,46.50
2019-04-26T12:42:53.023Z,46.50
2019-04-26T12:45:25.320Z,46.30
2019-04-26T12:47:55.337Z,46.40
2019-04-26T12:50:24.021Z,47.00
2019-04-26T12:52:55.830Z,47.50
2019-04-26T12:55:21.952Z,47.30
2019-04-26T12:57:49.688Z,46.00
2019-04-26T13:00:20.058Z,46.40
2019-04-26T13:02:50.140Z,47.30
2019-04-26T13:05:20.548Z,46.50
2019-04-26T13:07:53.889Z,48.30
2019-04-26T13:10:44.798Z,48.70
2019-04-26T13:13:23.500Z,48.90
2019-04-26T13:16:06.164Z,49.60
2019-04-26T13:18:34.862Z,50.90
2019-04-26T13:21:04.340Z,51.60
2019-04-26T13:23:33.234Z,51.90
2019-04-26T13:26:01.771Z,50.80
2019-04-26T13:28:30.525Z,49.70
2019-04-26T13:31:01.911Z,50.10
2019-04-26T13:33:29.292Z,49.90
2019-04-26T13:36:04.109Z,49.40
2019-04-26T13:38:27.122Z,48.70
2019-04-26T13:40:55.498Z,48.40
2019-04-26T13:43:26.996Z,50.20
2019-04-26T13:45:56.043Z,49.80
2019-04-26T13:48:39.142Z,49.60
2019-04-26T13:51:16.087Z,48.50
2019-04-26T13:53:44.808Z,47.30
2019-04-26T13:56:12.444Z,47.10
2019-04-26T13:58:41.121Z,46.50
2019-04-26T14:01:09.516Z,47.10
2019-04-26T14:03:37.183Z,47.90
2019-04-26T14:06:05.803Z,48.60
2019-04-26T14:08:34.196Z,49.30
2019-04-26T14:11:02.608Z,48.80
2019-04-26T14:13:31.214Z,48.90
2019-04-26T14:15:59.030Z,49.20
2019-04-26T14:18:28.244Z,49.30
2019-04-26T14:20:58.910Z,48.30
2019-04-26T14:23:34.651Z,47.80
2019-04-26T14:26:10.781Z,47.90
2019-04-26T14:28:41.914Z,47.90
2019-04-26T14:31:12.332Z,46.70
2019-04-26T14:33:40.220Z,42.30
2019-04-26T14:36:17.496Z,43.40
2019-04-26T14:38:40.229Z,41.80
2019-04-26T14:41:08.485Z,43.80
2019-04-26T14:43:40.892Z,46.60
2019-04-26T14:46:10.356Z,48.50
2019-04-26T14:48:40.533Z,48.50
2019-04-26T14:51:12.017Z,47.00
2019-04-26T14:53:38.656Z,44.10
2019-04-26T14:56:07.420Z,41.20
2019-04-26T14:58:36.209Z,39.10
2019-04-26T15:01:15.632Z,38.90
2019-04-26T15:03:45.966Z,37.80
2019-04-26T15:06:23.675Z,36.20
2019-04-26T15:08:53.115Z,35.00
2019-04-26T15:11:22.939Z,39.10
2019-04-26T15:13:51.810Z,38.40
2019-04-26T15:16:22.240Z,38.40
2019-04-26T15:18:52.448Z,38.10
2019-04-26T15:21:22.832Z,37.50
2019-04-26T15:23:55.432Z,35.10
2019-04-26T15:26:27.439Z,35.30
2019-04-26T15:28:52.685Z,34.70
2019-04-26T15:31:24.695Z,37.30
2019-04-26T15:33:52.833Z,34.90
2019-04-26T15:36:23.136Z,35.50
2019-04-26T15:38:52.815Z,34.30
2019-04-26T15:41:29.255Z,36.30
2019-04-26T15:44:02.718Z,38.80
2019-04-26T15:46:49.902Z,38.90
2019-04-26T15:49:36.514Z,39.30
2019-04-26T15:52:02.944Z,41.20
2019-04-26T15:54:32.360Z,42.90
2019-04-26T15:57:02.179Z,44.10
2019-04-26T15:59:30.910Z,44.00
2019-04-26T16:01:59.288Z,45.20
2019-04-26T16:04:27.699Z,45.00
2019-04-26T16:06:56.381Z,45.80
2019-04-26T16:09:25.081Z,46.40
2019-04-26T16:11:55.295Z,46.50
2019-04-26T16:14:26.465Z,46.50
2019-04-26T16:16:54.399Z,46.80
2019-04-26T16:19:26.676Z,47.50
2019-04-26T16:21:55.273Z,47.50
2019-04-26T16:24:24.098Z,47.00
2019-04-26T16:26:56.142Z,47.20
2019-04-26T16:29:28.624Z,47.30
2019-04-26T16:31:58.935Z,47.80
2019-04-26T16:34:32.475Z,48.70
2019-04-26T16:37:02.951Z,49.20
2019-04-26T16:39:38.270Z,49.40
2019-04-26T16:42:05.165Z,50.10
2019-04-26T16:44:33.470Z,50.20
2019-04-26T16:47:05.703Z,51.30
2019-04-26T16:49:35.172Z,51.60
2019-04-26T16:52:06.822Z,51.50
2019-04-26T16:54:34.334Z,51.90
2019-04-26T16:57:06.380Z,52.10
2019-04-26T16:59:33.452Z,52.10
2019-04-26T17:02:02.805Z,52.00
2019-04-26T17:04:35.148Z,52.00
2019-04-26T17:07:04.795Z,52.60
2019-04-26T17:09:54.280Z,52.60
2019-04-26T17:12:02.665Z,52.50
2019-04-26T17:14:33.970Z,52.30
2019-04-26T17:17:03.168Z,52.50
2019-04-26T17:19:34.287Z,51.60
2019-04-26T17:22:15.989Z,52.40
2019-04-26T17:24:49.407Z,52.90
2019-04-26T17:27:19.739Z,53.20
2019-04-26T17:29:48.422Z,53.30
2019-04-26T17:32:17.452Z,54.10
2019-04-26T17:34:47.459Z,54.30
2019-04-26T17:37:17.470Z,54.80
2019-04-26T17:39:47.513Z,55.00
2019-04-26T17:42:16.713Z,55.00
2019-04-26T17:44:45.415Z,55.70
2019-04-26T17:47:14.121Z,57.00
2019-04-26T17:49:44.009Z,57.60
2019-04-26T17:52:12.812Z,57.90
2019-04-26T17:54:46.699Z,58.60
2019-04-26T17:57:14.405Z,58.80
2019-04-26T17:59:47.690Z,58.60
2019-04-26T18:02:25.858Z,59.00
2019-04-26T18:04:43.238Z,59.90
2019-04-26T18:07:36.098Z,58.70
2019-04-26T18:09:46.544Z,59.30
2019-04-26T18:12:12.783Z,60.50
2019-04-26T18:14:41.189Z,61.50
2019-04-26T18:17:11.505Z,61.90
2019-04-26T18:19:47.831Z,62.80
2019-04-26T18:22:28.506Z,62.80
2019-04-26T18:24:57.458Z,63.90
2019-04-26T18:27:29.826Z,64.20
2019-04-26T18:29:59.839Z,64.10
2019-04-26T18:32:27.149Z,64.20
2019-04-26T18:34:55.762Z,65.60
2019-04-26T18:37:24.433Z,66.20
2019-04-26T18:39:53.527Z,67.00
2019-04-26T18:42:22.355Z,68.00
2019-04-26T18:44:51.058Z,68.80
2019-04-26T18:47:27.456Z,69.90
2019-04-26T18:49:57.983Z,71.20
2019-04-26T18:52:26.042Z,71.50
2019-04-26T18:55:05.775Z,72.90
2019-04-26T18:57:34.580Z,73.50
2019-04-26T19:00:04.203Z,73.50
2019-04-26T19:02:33.350Z,76.40
2019-04-26T19:05:05.676Z,75.50
2019-04-26T19:07:34.687Z,76.90
2019-04-26T19:10:05.597Z,78.10
2019-04-26T19:12:34.649Z,77.60
2019-04-26T19:15:22.099Z,75.90
2019-04-26T19:17:52.432Z,76.60
2019-04-26T19:20:39.579Z,76.20
2019-04-26T19:23:09.361Z,73.60
2019-04-26T19:25:40.845Z,76.20
2019-04-26T19:28:09.106Z,75.70
2019-04-26T19:30:39.950Z,75.60
2019-04-26T19:33:11.510Z,78.10
2019-04-26T19:35:39.395Z,78.10
2019-04-26T19:38:13.312Z,78.10
2019-04-26T19:40:46.353Z,77.60
2019-04-26T19:43:12.441Z,77.90
2019-04-26T19:45:47.025Z,77.50
2019-04-26T19:48:20.446Z,77.10
2019-04-26T19:50:52.716Z,77.20
2019-04-26T19:53:24.928Z,78.00
2019-04-26T19:55:58.389Z,78.70
2019-04-26T19:58:28.661Z,80.00
2019-04-26T20:00:57.341Z,80.60
2019-04-26T20:03:26.067Z,81.30
2019-04-26T20:05:54.467Z,81.10
2019-04-26T20:08:23.522Z,81.40
2019-04-26T20:10:52.356Z,82.70
2019-04-26T20:13:22.038Z,82.40
2019-04-26T20:15:53.042Z,81.90
2019-04-26T20:18:21.897Z,83.40
2019-04-26T20:20:52.114Z,83.00
2019-04-26T20:23:22.721Z,83.50
2019-04-26T20:25:53.060Z,84.50
2019-04-26T20:28:22.898Z,84.70
2019-04-26T20:31:08.602Z,83.50
2019-04-26T20:33:36.569Z,84.60
2019-04-26T20:36:05.346Z,84.50
2019-04-26T20:38:42.844Z,83.80
2019-04-26T20:41:04.564Z,85.40
2019-04-26T20:43:36.317Z,84.50
2019-04-26T20:46:14.041Z,86.30
2019-04-26T20:48:39.808Z,86.50
2019-04-26T20:51:10.863Z,85.70
2019-04-26T20:53:41.339Z,87.50
2019-04-26T20:56:16.243Z,88.50
2019-04-26T20:58:43.305Z,88.90
2019-04-26T21:01:14.099Z,90.50
2019-04-26T21:03:45.786Z,90.80
2019-04-26T21:06:12.853Z,90.60
2019-04-26T21:08:42.427Z,91.00
2019-04-26T21:11:13.708Z,91.60
2019-04-26T21:13:42.296Z,91.50
2019-04-26T21:16:15.339Z,92.60
2019-04-26T21:18:44.274Z,92.80
2019-04-26T21:21:15.689Z,92.70
2019-04-26T21:23:44.022Z,91.90
2019-04-26T21:26:17.650Z,92.50
2019-04-26T21:28:48.203Z,93.20
2019-04-26T21:31:24.852Z,94.20
2019-04-26T21:34:07.937Z,92.90
2019-04-26T21:36:46.068Z,94.20
2019-04-26T21:39:19.625Z,92.80
2019-04-26T21:41:50.274Z,93.10
2019-04-26T21:44:19.274Z,93.40
2019-04-26T21:46:49.653Z,93.60
2019-04-26T21:49:20.746Z,94.00
2019-04-26T21:51:52.119Z,92.20
2019-04-26T21:54:19.481Z,92.40
2019-04-26T21:56:49.607Z,92.40
2019-04-26T21:59:18.503Z,93.00
2019-04-26T22:01:48.303Z,94.10
2019-04-26T22:04:17.815Z,94.20
2019-04-26T22:06:46.499Z,93.40
2019-04-26T22:09:28.625Z,93.90
2019-04-26T22:11:56.540Z,94.70
2019-04-26T22:14:25.939Z,94.00
2019-04-26T22:17:08.169Z,94.90
2019-04-26T22:19:38.743Z,94.90
2019-04-26T22:22:09.388Z,95.40
2019-04-26T22:24:39.640Z,95.50
2019-04-26T22:27:08.333Z,95.10
2019-04-26T22:29:36.978Z,95.70
2019-04-26T22:32:05.948Z,95.50
2019-04-26T22:34:37.258Z,95.70
2019-04-26T22:37:11.155Z,95.80
2019-04-26T22:39:39.838Z,95.60
2019-04-26T22:42:05.447Z,94.80
2019-04-26T22:44:36.102Z,96.60
2019-04-26T22:47:09.635Z,96.30
2019-04-26T22:49:41.618Z,96.20
2019-04-26T22:52:11.215Z,95.60
2019-04-26T22:54:44.674Z,95.90
2019-04-26T22:57:13.162Z,97.10
2019-04-26T22:59:43.311Z,96.80
2019-04-26T23:02:13.814Z,96.30
2019-04-26T23:04:42.988Z,96.40
2019-04-26T23:10:17.588Z,96.70
2019-04-26T23:12:51.008Z,95.80
2019-04-26T23:15:37.979Z,95.80
2019-04-26T23:18:20.897Z,97.00
2019-04-26T23:20:57.621Z,96.50
2019-04-26T23:23:26.552Z,96.40
2019-04-26T23:25:55.181Z,95.80
2019-04-26T23:28:27.627Z,96.00
2019-04-26T23:30:54.700Z,95.80
2019-04-26T23:33:23.965Z,95.10
2019-04-26T23:35:53.193Z,95.10
2019-04-26T23:38:23.412Z,94.80
2019-04-26T23:40:52.540Z,95.80
2019-04-26T23:43:22.496Z,96.00
2019-04-26T23:45:53.029Z,95.30
2019-04-26T23:48:21.756Z,96.30
2019-04-26T23:50:50.446Z,95.80
2019-04-26T23:53:20.199Z,96.00
2019-04-26T23:55:49.430Z,95.40
2019-04-26T23:58:18.109Z,95.30
